Startpagina
METAR-TAF:

METAR-TAF

Vliegvelden :

Büchel, Duitsland

breedte: 50-10N, lengte: 007-04E, hoogte: 478 m

Actueel weer

Dit bericht is 1 uur en het 8 minuten geleden gemaakt, om 22:20 UTC
Wind 2 kt uit het noorden
Temperatuur -1°C
Vochtigheid 100%
Druk 1032 hPa
Zicht: 0100 m

METAR: ETSB 242220Z AUTO 36002KT 0100 // ////// M01/M01 Q1032 ///

Tijdstip: 00:28 (23:28 UTC)

Verwachting

Dit bericht is 6 uur en het 28 minuten geleden gemaakt, om 17:00 UTC
Verwachting geldig van 24 om 18 UTC tot 25 om 03 UTC
Wind 5 kt uit het oosten
Zicht: 0500 m
op 100 ft
onderkoelde mist

TAF: ETSB 241700Z 2418/2503 09005KT 0500 FZFG VV001 BY ETGL

Waarnemingen en weersverwachtingen van meer dan 4000 vliegvelden (METAR en TAF).

De beschikbare stations zijn de gele en rode punten op de kaart.

Ga met uw muis naar het station om de naam te zien.

Klik dan om waarnemingen en weersverwachtingen te zien.

kaart wijzigen: klik op de groene knoppen met een zwart kruis om in te zoomen, op de groene knop met een streepje om uit te zoomen of op de groene pijlen voor aangrenzende kaarten.


METAR-TAF: